Wetterdaten: Mittwoch, 06.11.2013
Datum Zeit Temperatur Luftfeuchte Luftdruck Regen Wind Richtung Richtung Taupunkt Windchill Windben
06.11.2013 00:00 6,5 C 89 % 1002,2 hPa 0,0 l/m 11,4 km/h (2 Bft) S 180 4,8 C 1,0 C 8,9 km/h (2 Bft)
06.11.2013 00:05 6,6 C 88 % 1002,2 hPa 0,0 l/m 11,9 km/h (2 Bft) S 180 4,8 C 0,6 C 14,8 km/h (3 Bft)
06.11.2013 00:10 6,6 C 88 % 1002,4 hPa 0,0 l/m 11,4 km/h (2 Bft) W-SW 247 4,8 C 1,0 C 10,5 km/h (2 Bft)
06.11.2013 00:15 6,4 C 88 % 1002,4 hPa 0,0 l/m 12,7 km/h (3 Bft) S 180 4,6 C -0,5 C 14,8 km/h (3 Bft)
06.11.2013 00:20 6,2 C 89 % 1002,4 hPa 0,0 l/m 12,9 km/h (3 Bft) S-SO 157 4,5 C -0,8 C 22,9 km/h (4 Bft)
06.11.2013 00:25 6,1 C 89 % 1002,4 hPa 0,0 l/m 12,9 km/h (3 Bft) S-SO 157 4,4 C -0,8 C 14,2 km/h (3 Bft)
06.11.2013 00:30 6,0 C 90 % 1002,8 hPa 0,0 l/m 14,3 km/h (3 Bft) S 180 4,5 C -2,6 C 24,5 km/h (4 Bft)
06.11.2013 00:35 5,9 C 92 % 1002,8 hPa 0,0 l/m 14,2 km/h (3 Bft) S 180 4,7 C -2,5 C 16,9 km/h (3 Bft)
06.11.2013 00:40 5,9 C 92 % 1002,8 hPa 0,0 l/m 15,3 km/h (3 Bft) S 180 4,7 C -3,3 C 26,7 km/h (4 Bft)
06.11.2013 00:45 5,9 C 92 % 1002,8 hPa 0,0 l/m 14,2 km/h (3 Bft) S-SO 157 4,7 C -2,5 C 9,2 km/h (2 Bft)
06.11.2013 00:50 5,9 C 92 % 1002,9 hPa 0,0 l/m 13,0 km/h (3 Bft) S 180 4,7 C -1,5 C 13,7 km/h (3 Bft)
06.11.2013 00:55 5,9 C 93 % 1002,9 hPa 0,0 l/m 11,9 km/h (2 Bft) S-SO 157 4,9 C -0,7 C 12,6 km/h (3 Bft)
06.11.2013 01:00 5,9 C 93 % 1002,9 hPa 0,0 l/m 13,2 km/h (3 Bft) S 180 4,9 C -1,7 C 27,4 km/h (4 Bft)
06.11.2013 01:05 5,8 C 93 % 1002,9 hPa 0,0 l/m 12,9 km/h (3 Bft) S 180 4,8 C -1,7 C 22,4 km/h (4 Bft)
06.11.2013 01:10 5,7 C 93 % 1003,1 hPa 0,0 l/m 13,8 km/h (3 Bft) S 180 4,7 C -2,3 C 28,0 km/h (4 Bft)
06.11.2013 01:15 5,7 C 93 % 1003,1 hPa 0,0 l/m 14,0 km/h (3 Bft) S 180 4,7 C -2,5 C 17,7 km/h (3 Bft)
06.11.2013 01:18 5,6 C 93 % 1003,1 hPa 0,0 l/m 13,0 km/h (3 Bft) S 180 4,6 C -1,5 C 12,7 km/h (3 Bft)
06.11.2013 01:20 5,6 C 93 % 1003,1 hPa 0,0 l/m 13,0 km/h (3 Bft) S 180 4,6 C -1,5 C 12,7 km/h (3 Bft)
06.11.2013 01:25 5,6 C 93 % 1003,1 hPa 0,0 l/m 13,5 km/h (3 Bft) S-SO 157 4,6 C -2,1 C 18,2 km/h (3 Bft)
06.11.2013 01:30 5,5 C 93 % 1003,4 hPa 0,0 l/m 13,2 km/h (3 Bft) S-SO 157 4,5 C -2,1 C 20,4 km/h (4 Bft)
06.11.2013 01:35 5,4 C 92 % 1003,4 hPa 0,0 l/m 12,4 km/h (3 Bft) S-SO 157 4,2 C -1,5 C 9,2 km/h (2 Bft)
06.11.2013 01:40 5,3 C 92 % 1003,4 hPa 0,0 l/m 12,6 km/h (3 Bft) S 180 4,1 C -1,7 C 9,5 km/h (2 Bft)
06.11.2013 01:45 5,3 C 92 % 1003,4 hPa 0,0 l/m 12,1 km/h (2 Bft) S 180 4,1 C -1,3 C 8,5 km/h (2 Bft)
06.11.2013 01:50 5,2 C 91 % 1004,2 hPa 0,0 l/m 12,1 km/h (2 Bft) SO 135 3,9 C -1,3 C 18,7 km/h (3 Bft)
06.11.2013 01:55 5,1 C 90 % 1004,2 hPa 0,0 l/m 11,1 km/h (2 Bft) SO 135 3,6 C -0,4 C 14,2 km/h (3 Bft)
06.11.2013 02:00 5,0 C 90 % 1004,2 hPa 0,0 l/m 10,3 km/h (2 Bft) SO 135 3,5 C 0,2 C 10,9 km/h (2 Bft)
06.11.2013 02:05 5,0 C 90 % 1004,2 hPa 0,0 l/m 11,1 km/h (2 Bft) SO 135 3,5 C -0,6 C 16,3 km/h (3 Bft)
06.11.2013 02:10 4,9 C 90 % 1004,4 hPa 0,0 l/m 11,4 km/h (2 Bft) S-SW 202 3,4 C -1,0 C 10,0 km/h (2 Bft)
06.11.2013 02:15 4,9 C 90 % 1004,4 hPa 0,0 l/m 11,1 km/h (2 Bft) O-SO 112 3,4 C -0,7 C 15,9 km/h (3 Bft)
06.11.2013 02:20 4,8 C 90 % 1004,4 hPa 0,0 l/m 10,1 km/h (2 Bft) S 180 3,3 C 0,1 C 9,0 km/h (2 Bft)
06.11.2013 02:25 4,9 C 90 % 1004,4 hPa 0,0 l/m 9,2 km/h (2 Bft) SO 135 3,4 C 1,1 C 8,7 km/h (2 Bft)
06.11.2013 02:30 4,9 C 91 % 1005,1 hPa 0,0 l/m 8,2 km/h (2 Bft) S-SO 157 3,6 C 2,2 C 8,9 km/h (2 Bft)
06.11.2013 02:35 4,9 C 91 % 1005,1 hPa 0,0 l/m 7,4 km/h (2 Bft) S 180 3,6 C 3,1 C 8,4 km/h (2 Bft)
06.11.2013 02:40 5,0 C 90 % 1005,1 hPa 0,0 l/m 7,4 km/h (2 Bft) S 180 3,5 C 3,2 C 13,2 km/h (3 Bft)
06.11.2013 02:45 5,1 C 89 % 1005,1 hPa 0,0 l/m 8,9 km/h (2 Bft) S-SO 157 3,4 C 1,8 C 14,5 km/h (3 Bft)
06.11.2013 02:50 5,2 C 89 % 1004,9 hPa 0,0 l/m 11,1 km/h (2 Bft) S-SW 202 3,5 C -0,3 C 10,3 km/h (2 Bft)
06.11.2013 02:55 5,3 C 89 % 1004,9 hPa 0,0 l/m 11,7 km/h (2 Bft) S 180 3,6 C -0,8 C 11,4 km/h (2 Bft)
06.11.2013 03:00 5,2 C 89 % 1004,9 hPa 0,0 l/m 9,3 km/h (2 Bft) S 180 3,5 C 1,5 C 6,3 km/h (2 Bft)
06.11.2013 03:05 5,3 C 89 % 1004,9 hPa 0,0 l/m 7,9 km/h (2 Bft) S 180 3,6 C 3,1 C 10,9 km/h (2 Bft)
06.11.2013 03:10 5,5 C 88 % 1005,1 hPa 0,0 l/m 10,0 km/h (2 Bft) S 180 3,7 C 1,1 C 19,0 km/h (3 Bft)
06.11.2013 03:15 5,7 C 86 % 1005,1 hPa 0,0 l/m 12,6 km/h (3 Bft) W-SW 247 3,5 C -1,0 C 17,2 km/h (3 Bft)
06.11.2013 03:20 5,8 C 85 % 1005,1 hPa 0,0 l/m 13,5 km/h (3 Bft) S-SO 157 3,5 C -1,4 C 23,8 km/h (4 Bft)
06.11.2013 03:25 6,0 C 81 % 1005,1 hPa 0,0 l/m 16,3 km/h (3 Bft) S-SO 157 3,0 C -3,0 C 21,2 km/h (4 Bft)
06.11.2013 03:30 6,0 C 80 % 1005,7 hPa 0,0 l/m 17,9 km/h (3 Bft) S 180 2,8 C -4,1 C 30,4 km/h (5 Bft)
06.11.2013 03:35 6,0 C 80 % 1005,7 hPa 0,0 l/m 18,0 km/h (3 Bft) SO 135 2,8 C -4,1 C 24,3 km/h (4 Bft)
06.11.2013 03:40 5,9 C 80 % 1005,7 hPa 0,0 l/m 15,9 km/h (3 Bft) S-SW 202 2,7 C -2,8 C 33,8 km/h (5 Bft)
06.11.2013 03:45 6,0 C 79 % 1005,7 hPa 0,0 l/m 15,3 km/h (3 Bft) S 180 2,6 C -2,4 C 27,4 km/h (4 Bft)
06.11.2013 03:50 5,9 C 79 % 1005,8 hPa 0,0 l/m 14,0 km/h (3 Bft) S 180 2,5 C -1,6 C 10,9 km/h (2 Bft)
06.11.2013 03:55 5,8 C 81 % 1005,8 hPa 0,0 l/m 13,7 km/h (3 Bft) S-SW 202 2,8 C -1,3 C 14,5 km/h (3 Bft)
06.11.2013 04:00 5,9 C 80 % 1005,8 hPa 0,0 l/m 12,1 km/h (2 Bft) S-SO 157 2,7 C -0,2 C 7,1 km/h (2 Bft)
06.11.2013 04:05 5,9 C 80 % 1005,8 hPa 0,0 l/m 11,3 km/h (2 Bft) NO 45 2,7 C 0,4 C 16,4 km/h (3 Bft)
06.11.2013 04:10 6,0 C 78 % 1005,8 hPa 0,0 l/m 12,9 km/h (3 Bft) S-SO 157 2,5 C -0,8 C 15,4 km/h (3 Bft)
06.11.2013 04:15 5,9 C 79 % 1005,8 hPa 0,0 l/m 12,6 km/h (3 Bft) S-SW 202 2,5 C -0,5 C 14,0 km/h (3 Bft)
06.11.2013 04:20 6,0 C 78 % 1005,8 hPa 0,0 l/m 10,6 km/h (2 Bft) S 180 2,5 C 1,2 C 11,1 km/h (2 Bft)
06.11.2013 04:25 5,9 C 79 % 1005,8 hPa 0,0 l/m 10,9 km/h (2 Bft) S 180 2,5 C 0,8 C 21,6 km/h (4 Bft)
06.11.2013 04:30 6,0 C 77 % 1006,4 hPa 0,0 l/m 11,4 km/h (2 Bft) S-SO 157 2,3 C 0,4 C 10,1 km/h (2 Bft)
06.11.2013 04:35 6,0 C 77 % 1006,4 hPa 0,0 l/m 12,6 km/h (3 Bft) S-SO 157 2,3 C -0,4 C 17,4 km/h (3 Bft)
06.11.2013 04:40 6,0 C 76 % 1006,4 hPa 0,0 l/m 12,9 km/h (3 Bft) S-SO 157 2,1 C -0,7 C 14,0 km/h (3 Bft)
06.11.2013 04:45 5,9 C 78 % 1006,4 hPa 0,0 l/m 11,7 km/h (2 Bft) S-SW 202 2,4 C 0,3 C 16,4 km/h (3 Bft)
06.11.2013 04:50 6,1 C 75 % 1006,4 hPa 0,0 l/m 13,4 km/h (3 Bft) S-SW 202 2,0 C -1,0 C 28,8 km/h (4 Bft)
06.11.2013 04:55 6,2 C 74 % 1006,4 hPa 0,0 l/m 17,1 km/h (3 Bft) N-NW 337 1,9 C -3,6 C 18,5 km/h (3 Bft)
06.11.2013 05:00 6,1 C 74 % 1006,4 hPa 0,0 l/m 14,3 km/h (3 Bft) S-SO 157 1,8 C -1,8 C 10,9 km/h (2 Bft)
06.11.2013 05:05 6,1 C 74 % 1006,4 hPa 0,0 l/m 10,9 km/h (2 Bft) S 180 1,8 C 1,0 C 11,3 km/h (2 Bft)
06.11.2013 05:10 6,1 C 74 % 1006,4 hPa 0,0 l/m 12,9 km/h (3 Bft) S 180 1,8 C -1,2 C 25,4 km/h (4 Bft)
06.11.2013 05:15 6,0 C 74 % 1006,4 hPa 0,0 l/m 13,8 km/h (3 Bft) SO 135 1,7 C -2,2 C 13,2 km/h (3 Bft)
06.11.2013 05:20 5,9 C 74 % 1006,4 hPa 0,0 l/m 15,0 km/h (3 Bft) S-SO 157 1,6 C -3,6 C 11,7 km/h (2 Bft)
06.11.2013 05:25 5,9 C 74 % 1006,4 hPa 0,0 l/m 15,0 km/h (3 Bft) S 180 1,6 C -3,7 C 13,7 km/h (3 Bft)
06.11.2013 05:30 5,6 C 76 % 1006,1 hPa 0,0 l/m 12,1 km/h (2 Bft) O-SO 112 1,7 C -1,6 C 6,3 km/h (2 Bft)
06.11.2013 05:35 5,6 C 76 % 1006,1 hPa 0,0 l/m 10,9 km/h (2 Bft) SO 135 1,7 C -0,9 C 9,8 km/h (2 Bft)
06.11.2013 05:40 5,5 C 77 % 1006,1 hPa 0,0 l/m 8,7 km/h (2 Bft) S-SW 202 1,8 C 1,2 C 13,7 km/h (3 Bft)
06.11.2013 05:45 5,5 C 78 % 1006,1 hPa 0,0 l/m 9,2 km/h (2 Bft) S 180 2,0 C 0,7 C 8,4 km/h (2 Bft)
06.11.2013 05:50 5,5 C 79 % 1006,5 hPa 0,0 l/m 10,9 km/h (2 Bft) S 180 2,2 C -1,0 C 14,8 km/h (3 Bft)
06.11.2013 05:55 5,4 C 79 % 1006,5 hPa 0,0 l/m 10,5 km/h (2 Bft) S 180 2,1 C -0,6 C 11,4 km/h (2 Bft)
06.11.2013 06:00 5,4 C 80 % 1006,5 hPa 0,0 l/m 10,3 km/h (2 Bft) SO 135 2,2 C -0,5 C 9,7 km/h (2 Bft)
06.11.2013 06:05 5,4 C 80 % 1006,5 hPa 0,0 l/m 10,8 km/h (2 Bft) S-SO 157 2,2 C -1,1 C 10,8 km/h (2 Bft)
06.11.2013 06:10 5,4 C 81 % 1006,2 hPa 0,0 l/m 11,1 km/h (2 Bft) S 180 2,4 C -1,3 C 10,3 km/h (2 Bft)
06.11.2013 06:15 5,4 C 81 % 1006,2 hPa 0,0 l/m 11,3 km/h (2 Bft) S-SW 202 2,4 C -1,4 C 12,1 km/h (2 Bft)
06.11.2013 06:18 5,2 C 83 % 1006,2 hPa 0,7 l/m 9,8 km/h (2 Bft) SO 135 2,6 C -0,2 C 14,0 km/h (3 Bft)
06.11.2013 06:20 5,2 C 83 % 1006,2 hPa 0,0 l/m 9,8 km/h (2 Bft) SO 135 2,6 C -0,2 C 14,0 km/h (3 Bft)
06.11.2013 06:25 5,2 C 83 % 1006,2 hPa 0,0 l/m 9,5 km/h (2 Bft) S-SO 157 2,6 C 0,1 C 13,0 km/h (3 Bft)
06.11.2013 06:30 5,2 C 84 % 1006,6 hPa 0,0 l/m 8,4 km/h (2 Bft) S 180 2,7 C 1,4 C 7,4 km/h (2 Bft)
06.11.2013 06:35 5,2 C 84 % 1006,6 hPa 0,0 l/m 8,5 km/h (2 Bft) S 180 2,7 C 1,2 C 7,1 km/h (2 Bft)
06.11.2013 06:40 5,2 C 85 % 1006,6 hPa 0,0 l/m 8,5 km/h (2 Bft) SO 135 2,9 C 1,2 C 10,0 km/h (2 Bft)
06.11.2013 06:45 5,1 C 86 % 1006,6 hPa 0,0 l/m 8,4 km/h (2 Bft) S 180 3,0 C 1,4 C 7,2 km/h (2 Bft)
06.11.2013 06:50 5,1 C 86 % 1006,5 hPa 0,0 l/m 8,0 km/h (2 Bft) SO 135 3,0 C 1,6 C 8,0 km/h (2 Bft)
06.11.2013 06:55 5,1 C 86 % 1006,5 hPa 0,0 l/m 8,7 km/h (2 Bft) S-SO 157 3,0 C 0,8 C 11,4 km/h (2 Bft)
06.11.2013 07:00 5,2 C 87 % 1006,5 hPa 0,0 l/m 10,9 km/h (2 Bft) S-SW 202 3,2 C -1,1 C 11,6 km/h (2 Bft)
06.11.2013 07:05 5,3 C 86 % 1006,5 hPa 0,0 l/m 11,3 km/h (2 Bft) S 180 3,2 C -1,4 C 16,7 km/h (3 Bft)
06.11.2013 07:10 5,2 C 87 % 1006,4 hPa 0,0 l/m 12,6 km/h (3 Bft) S 180 3,2 C -2,7 C 17,4 km/h (3 Bft)
06.11.2013 07:15 5,1 C 87 % 1006,4 hPa 0,0 l/m 11,9 km/h (2 Bft) S-SO 157 3,1 C -2,2 C 19,6 km/h (3 Bft)
06.11.2013 07:20 5,2 C 88 % 1006,4 hPa 0,0 l/m 13,2 km/h (3 Bft) S 180 3,4 C -3,1 C 16,7 km/h (3 Bft)
06.11.2013 07:25 5,1 C 88 % 1006,4 hPa 0,0 l/m 12,4 km/h (3 Bft) S-SO 157 3,3 C -2,5 C 18,0 km/h (3 Bft)
06.11.2013 07:30 5,1 C 89 % 1006,9 hPa 0,0 l/m 10,9 km/h (2 Bft) SO 135 3,4 C -1,1 C 10,0 km/h (2 Bft)
06.11.2013 07:35 5,2 C 89 % 1006,9 hPa 0,0 l/m 11,9 km/h (2 Bft) SO 135 3,5 C -1,9 C 12,7 km/h (3 Bft)
06.11.2013 07:40 5,1 C 89 % 1006,9 hPa 0,0 l/m 12,1 km/h (2 Bft) S 180 3,4 C -2,1 C 15,6 km/h (3 Bft)
06.11.2013 07:45 5,1 C 89 % 1006,9 hPa 0,0 l/m 10,5 km/h (2 Bft) S 180 3,4 C -0,7 C 9,8 km/h (2 Bft)
06.11.2013 07:50 5,2 C 89 % 1007,1 hPa 0,0 l/m 10,6 km/h (2 Bft) N 360 3,5 C -0,8 C 10,0 km/h (2 Bft)
06.11.2013 07:55 5,1 C 90 % 1007,1 hPa 0,0 l/m 10,0 km/h (2 Bft) S 180 3,6 C -0,1 C 11,4 km/h (2 Bft)
06.11.2013 08:00 5,1 C 90 % 1007,1 hPa 0,0 l/m 8,2 km/h (2 Bft) SO 135 3,6 C 1,6 C 6,6 km/h (2 Bft)
06.11.2013 08:05 5,0 C 91 % 1007,1 hPa 0,0 l/m 7,9 km/h (2 Bft) SO 135 3,7 C 1,9 C 10,1 km/h (2 Bft)
06.11.2013 08:10 5,0 C 91 % 1007,2 hPa 0,0 l/m 8,0 km/h (2 Bft) S 180 3,7 C 1,7 C 11,6 km/h (2 Bft)
06.11.2013 08:15 5,0 C 92 % 1007,2 hPa 0,0 l/m 8,9 km/h (2 Bft) S-SO 157 3,8 C 0,8 C 9,5 km/h (2 Bft)
06.11.2013 08:20 5,1 C 92 % 1007,2 hPa 0,0 l/m 9,2 km/h (2 Bft) SO 135 3,9 C 0,5 C 9,7 km/h (2 Bft)
06.11.2013 08:25 5,1 C 92 % 1007,2 hPa 0,0 l/m 8,9 km/h (2 Bft) S-SO 157 3,9 C 0,8 C 11,4 km/h (2 Bft)
06.11.2013 08:30 5,1 C 92 % 1007,3 hPa 0,7 l/m 10,1 km/h (2 Bft) O 90 3,9 C -0,3 C 7,9 km/h (2 Bft)
06.11.2013 08:35 5,1 C 92 % 1007,3 hPa 0,0 l/m 10,0 km/h (2 Bft) NW 315 3,9 C -0,1 C 18,3 km/h (3 Bft)
06.11.2013 08:40 5,3 C 92 % 1007,3 hPa 0,0 l/m 9,3 km/h (2 Bft) SO 135 4,1 C 0,6 C 10,0 km/h (2 Bft)
06.11.2013 08:45 5,3 C 92 % 1007,3 hPa 0,0 l/m 9,2 km/h (2 Bft) S-SO 157 4,1 C 0,9 C 9,3 km/h (2 Bft)
06.11.2013 08:50 5,4 C 92 % 1007,2 hPa 0,0 l/m 8,4 km/h (2 Bft) S 180 4,2 C 2,0 C 7,2 km/h (2 Bft)
06.11.2013 08:55 5,5 C 92 % 1007,2 hPa 0,0 l/m 8,5 km/h (2 Bft) S 180 4,3 C 1,8 C 12,6 km/h (3 Bft)
06.11.2013 09:00 5,7 C 92 % 1007,2 hPa 0,0 l/m 9,7 km/h (2 Bft) SO 135 4,5 C 0,8 C 13,0 km/h (3 Bft)
06.11.2013 09:05 5,8 C 92 % 1007,2 hPa 0,0 l/m 11,1 km/h (2 Bft) S-SO 157 4,6 C -0,4 C 19,3 km/h (3 Bft)
06.11.2013 09:10 6,0 C 90 % 1007,9 hPa 0,0 l/m 11,3 km/h (2 Bft) S 180 4,5 C -0,4 C 10,9 km/h (2 Bft)
06.11.2013 09:15 6,1 C 90 % 1007,9 hPa 0,0 l/m 11,9 km/h (2 Bft) S 180 4,6 C -0,8 C 18,0 km/h (3 Bft)
06.11.2013 09:20 6,2 C 90 % 1007,9 hPa 0,0 l/m 12,6 km/h (3 Bft) S 180 4,7 C -1,4 C 10,1 km/h (2 Bft)
06.11.2013 09:25 6,2 C 90 % 1007,9 hPa 0,0 l/m 12,6 km/h (3 Bft) S 180 4,7 C -1,2 C 15,6 km/h (3 Bft)
06.11.2013 09:30 6,1 C 90 % 1008,2 hPa 0,0 l/m 11,1 km/h (2 Bft) S-SW 202 4,6 C 0,1 C 15,1 km/h (3 Bft)
06.11.2013 09:35 6,1 C 90 % 1008,2 hPa 0,0 l/m 9,7 km/h (2 Bft) O-NO 67 4,6 C 1,4 C 9,7 km/h (2 Bft)
06.11.2013 09:40 6,2 C 90 % 1008,2 hPa 0,0 l/m 10,5 km/h (2 Bft) S-SO 157 4,7 C 0,6 C 14,0 km/h (3 Bft)
06.11.2013 09:45 6,3 C 91 % 1008,2 hPa 0,0 l/m 10,6 km/h (2 Bft) S-SW 202 4,9 C 0,7 C 10,1 km/h (2 Bft)
06.11.2013 09:50 6,3 C 91 % 1008,4 hPa 0,0 l/m 12,2 km/h (2 Bft) S 180 4,9 C -0,6 C 7,6 km/h (2 Bft)
06.11.2013 09:55 6,2 C 91 % 1008,4 hPa 0,0 l/m 13,4 km/h (3 Bft) O-SO 112 4,8 C -1,6 C 14,8 km/h (3 Bft)
06.11.2013 10:00 6,2 C 91 % 1008,4 hPa 0,0 l/m 14,0 km/h (3 Bft) S-SW 202 4,8 C -2,1 C 18,0 km/h (3 Bft)
06.11.2013 10:05 6,2 C 91 % 1008,4 hPa 0,0 l/m 14,8 km/h (3 Bft) S 180 4,8 C -2,6 C 16,9 km/h (3 Bft)
06.11.2013 10:10 6,3 C 91 % 1008,4 hPa 0,0 l/m 13,4 km/h (3 Bft) S 180 4,9 C -1,5 C 10,9 km/h (2 Bft)
06.11.2013 10:15 6,3 C 91 % 1008,4 hPa 0,0 l/m 12,2 km/h (2 Bft) S 180 4,9 C -0,6 C 19,6 km/h (3 Bft)
06.11.2013 10:20 6,4 C 91 % 1008,4 hPa 0,0 l/m 10,3 km/h (2 Bft) S 180 5,0 C 1,2 C 9,0 km/h (2 Bft)
06.11.2013 10:25 6,4 C 91 % 1008,4 hPa 0,0 l/m 9,7 km/h (2 Bft) S-SO 157 5,0 C 1,7 C 8,4 km/h (2 Bft)
06.11.2013 10:30 6,4 C 91 % 1008,8 hPa 0,0 l/m 10,3 km/h (2 Bft) S 180 5,0 C 1,3 C 15,9 km/h (3 Bft)
06.11.2013 10:35 6,5 C 91 % 1008,8 hPa 0,0 l/m 9,3 km/h (2 Bft) S 180 5,1 C 2,3 C 9,0 km/h (2 Bft)
06.11.2013 10:40 6,6 C 92 % 1008,8 hPa 0,0 l/m 8,2 km/h (2 Bft) S 180 5,4 C 3,5 C 12,1 km/h (2 Bft)
06.11.2013 10:45 6,6 C 92 % 1008,8 hPa 0,0 l/m 7,9 km/h (2 Bft) S-SO 157 5,4 C 3,9 C 8,0 km/h (2 Bft)
06.11.2013 10:50 6,5 C 92 % 1008,8 hPa 0,0 l/m 8,0 km/h (2 Bft) S-SO 157 5,3 C 3,8 C 10,3 km/h (2 Bft)
06.11.2013 10:55 6,5 C 92 % 1008,8 hPa 0,0 l/m 8,0 km/h (2 Bft) S 180 5,3 C 3,6 C 4,8 km/h (1 Bft)
06.11.2013 11:00 6,6 C 92 % 1008,8 hPa 0,0 l/m 7,4 km/h (2 Bft) S 180 5,4 C 4,4 C 9,5 km/h (2 Bft)
06.11.2013 11:05 6,5 C 92 % 1008,8 hPa 0,0 l/m 7,6 km/h (2 Bft) S 180 5,3 C 4,0 C 8,4 km/h (2 Bft)
06.11.2013 11:10 6,6 C 92 % 1009,2 hPa 0,0 l/m 7,9 km/h (2 Bft) S-SO 157 5,4 C 3,9 C 9,8 km/h (2 Bft)
06.11.2013 11:13 6,6 C 92 % 1009,2 hPa 0,0 l/m 7,4 km/h (2 Bft) S-SO 157 5,4 C 4,4 C 7,2 km/h (2 Bft)
06.11.2013 11:15 6,6 C 92 % 1009,2 hPa 0,0 l/m 7,4 km/h (2 Bft) S-SO 157 5,4 C 4,4 C 7,2 km/h (2 Bft)
06.11.2013 11:20 6,6 C 92 % 1009,2 hPa 0,7 l/m 8,5 km/h (2 Bft) SO 135 5,4 C 3,3 C 6,9 km/h (2 Bft)
06.11.2013 11:25 6,6 C 92 % 1009,2 hPa 0,0 l/m 7,9 km/h (2 Bft) S 180 5,4 C 3,9 C 5,1 km/h (1 Bft)
06.11.2013 11:30 6,6 C 92 % 1009,2 hPa 0,0 l/m 7,1 km/h (2 Bft) S-SO 157 5,4 C 4,8 C 6,1 km/h (2 Bft)
06.11.2013 11:35 6,7 C 93 % 1009,2 hPa 0,0 l/m 7,2 km/h (2 Bft) S 180 5,6 C 4,7 C 7,7 km/h (2 Bft)
06.11.2013 11:40 6,8 C 93 % 1009,2 hPa 0,0 l/m 7,4 km/h (2 Bft) O-SO 112 5,7 C 4,6 C 8,7 km/h (2 Bft)
06.11.2013 11:45 6,9 C 93 % 1009,2 hPa 0,0 l/m 8,4 km/h (2 Bft) S-SO 157 5,8 C 3,7 C 10,9 km/h (2 Bft)
06.11.2013 11:50 6,9 C 93 % 1008,8 hPa 0,7 l/m 9,3 km/h (2 Bft) S-SW 202 5,8 C 2,9 C 20,8 km/h (4 Bft)
06.11.2013 11:55 7,1 C 93 % 1008,8 hPa 0,0 l/m 8,7 km/h (2 Bft) SO 135 6,0 C 3,7 C 8,5 km/h (2 Bft)
06.11.2013 12:00 7,2 C 93 % 1008,8 hPa 0,0 l/m 9,5 km/h (2 Bft) S 180 6,1 C 3,1 C 13,5 km/h (3 Bft)
06.11.2013 12:05 7,2 C 93 % 1008,8 hPa 0,0 l/m 9,3 km/h (2 Bft) S-SO 157 6,1 C 3,3 C 10,3 km/h (2 Bft)
06.11.2013 12:10 7,3 C 93 % 1008,6 hPa 0,0 l/m 9,3 km/h (2 Bft) S 180 6,2 C 3,3 C 9,8 km/h (2 Bft)
06.11.2013 12:15 7,3 C 93 % 1008,6 hPa 0,0 l/m 8,2 km/h (2 Bft) S 180 6,2 C 4,5 C 11,9 km/h (2 Bft)
06.11.2013 12:20 7,4 C 93 % 1008,6 hPa 0,0 l/m 8,5 km/h (2 Bft) S-SO 157 6,3 C 4,4 C 8,7 km/h (2 Bft)
06.11.2013 12:25 7,5 C 93 % 1008,6 hPa 0,0 l/m 8,0 km/h (2 Bft) S 180 6,4 C 5,0 C 13,4 km/h (3 Bft)
06.11.2013 12:30 7,6 C 93 % 1009,0 hPa 0,0 l/m 8,4 km/h (2 Bft) S 180 6,5 C 4,7 C 13,5 km/h (3 Bft)
06.11.2013 12:35 7,7 C 93 % 1009,0 hPa 0,0 l/m 9,5 km/h (2 Bft) W-SW 247 6,6 C 3,7 C 9,3 km/h (2 Bft)
06.11.2013 12:40 7,7 C 93 % 1009,0 hPa 0,7 l/m 10,6 km/h (2 Bft) S 180 6,6 C 2,8 C 20,9 km/h (4 Bft)
06.11.2013 12:45 7,8 C 94 % 1009,0 hPa 0,0 l/m 10,6 km/h (2 Bft) S-SW 202 6,9 C 2,9 C 10,3 km/h (2 Bft)
06.11.2013 12:50 7,8 C 94 % 1009,0 hPa 0,0 l/m 9,7 km/h (2 Bft) S 180 6,9 C 3,7 C 10,5 km/h (2 Bft)
06.11.2013 12:55 7,8 C 94 % 1009,0 hPa 0,0 l/m 8,7 km/h (2 Bft) S 180 6,9 C 4,6 C 8,4 km/h (2 Bft)
06.11.2013 13:00 7,9 C 94 % 1009,0 hPa 0,0 l/m 7,9 km/h (2 Bft) S 180 7,0 C 5,6 C 7,6 km/h (2 Bft)
06.11.2013 13:05 7,9 C 94 % 1009,0 hPa 0,0 l/m 7,1 km/h (2 Bft) W-SW 247 7,0 C 6,4 C 10,3 km/h (2 Bft)
06.11.2013 13:10 8,0 C 93 % 1009,1 hPa 0,0 l/m 7,2 km/h (2 Bft) S 180 6,9 C 6,4 C 7,4 km/h (2 Bft)
06.11.2013 13:15 8,1 C 93 % 1009,1 hPa 0,0 l/m 7,7 km/h (2 Bft) SW 225 7,0 C 5,9 C 11,4 km/h (2 Bft)
06.11.2013 13:20 8,2 C 94 % 1009,1 hPa 0,0 l/m 8,0 km/h (2 Bft) S 180 7,3 C 5,8 C 13,2 km/h (3 Bft)
06.11.2013 13:25 8,3 C 94 % 1009,1 hPa 0,0 l/m 8,5 km/h (2 Bft) S 180 7,4 C 5,4 C 5,5 km/h (1 Bft)
06.11.2013 13:30 8,4 C 94 % 1009,4 hPa 0,7 l/m 8,0 km/h (2 Bft) S-SW 202 7,5 C 6,0 C 8,9 km/h (2 Bft)
06.11.2013 13:35 8,5 C 94 % 1009,4 hPa 0,0 l/m 8,0 km/h (2 Bft) SO 135 7,6 C 6,2 C 12,1 km/h (2 Bft)
06.11.2013 13:40 8,6 C 94 % 1009,4 hPa 0,0 l/m 10,3 km/h (2 Bft) S 180 7,7 C 4,2 C 19,5 km/h (3 Bft)
06.11.2013 13:45 8,6 C 94 % 1009,4 hPa 0,0 l/m 10,0 km/h (2 Bft) S-SW 202 7,7 C 4,5 C 7,2 km/h (2 Bft)
06.11.2013 13:50 8,6 C 94 % 1009,4 hPa 0,0 l/m 9,8 km/h (2 Bft) S 180 7,7 C 4,6 C 17,2 km/h (3 Bft)
06.11.2013 13:55 8,7 C 94 % 1009,4 hPa 0,0 l/m 9,8 km/h (2 Bft) S 180 7,8 C 4,6 C 7,7 km/h (2 Bft)
06.11.2013 14:00 8,7 C 94 % 1009,4 hPa 0,0 l/m 10,5 km/h (2 Bft) S 180 7,8 C 4,2 C 9,5 km/h (2 Bft)
06.11.2013 14:05 8,7 C 94 % 1009,4 hPa 0,0 l/m 9,7 km/h (2 Bft) S-SO 157 7,8 C 4,9 C 17,2 km/h (3 Bft)
06.11.2013 14:10 8,8 C 94 % 1009,7 hPa 0,7 l/m 10,1 km/h (2 Bft) S-SW 202 7,9 C 4,7 C 7,9 km/h (2 Bft)
06.11.2013 14:15 8,8 C 94 % 1009,7 hPa 0,0 l/m 11,1 km/h (2 Bft) S 180 7,9 C 3,8 C 11,1 km/h (2 Bft)
06.11.2013 14:20 8,9 C 94 % 1009,7 hPa 0,7 l/m 10,1 km/h (2 Bft) S-SO 157 8,0 C 4,9 C 10,3 km/h (2 Bft)
06.11.2013 14:25 8,9 C 94 % 1009,7 hPa 0,0 l/m 10,0 km/h (2 Bft) S 180 8,0 C 5,1 C 7,7 km/h (2 Bft)
06.11.2013 14:30 8,9 C 94 % 1009,8 hPa 0,0 l/m 9,3 km/h (2 Bft) S 180 8,0 C 5,6 C 16,6 km/h (3 Bft)
06.11.2013 14:35 9,0 C 94 % 1009,8 hPa 0,0 l/m 9,0 km/h (2 Bft) S-SW 202 8,1 C 5,9 C 12,9 km/h (3 Bft)
06.11.2013 14:40 9,0 C 94 % 1009,8 hPa 0,0 l/m 9,7 km/h (2 Bft) S 180 8,1 C 5,4 C 14,3 km/h (3 Bft)
06.11.2013 14:45 9,0 C 94 % 1009,8 hPa 0,0 l/m 9,7 km/h (2 Bft) S 180 8,1 C 5,4 C 13,8 km/h (3 Bft)
06.11.2013 14:50 9,0 C 94 % 1010,0 hPa 0,7 l/m 10,0 km/h (2 Bft) S 180 8,1 C 5,3 C 7,4 km/h (2 Bft)
06.11.2013 14:55 9,1 C 94 % 1010,0 hPa 0,0 l/m 9,8 km/h (2 Bft) W-SW 247 8,2 C 5,4 C 12,6 km/h (3 Bft)
06.11.2013 15:00 9,1 C 94 % 1010,0 hPa 0,0 l/m 9,8 km/h (2 Bft) S-SW 202 8,2 C 5,4 C 9,8 km/h (2 Bft)
06.11.2013 15:05 9,1 C 94 % 1010,0 hPa 0,0 l/m 10,9 km/h (2 Bft) S 180 8,2 C 4,5 C 10,8 km/h (2 Bft)
06.11.2013 15:10 9,1 C 94 % 1010,2 hPa 0,0 l/m 10,8 km/h (2 Bft) S 180 8,2 C 4,7 C 20,1 km/h (4 Bft)
06.11.2013 15:15 9,2 C 94 % 1010,2 hPa 0,0 l/m 10,5 km/h (2 Bft) S-SO 157 8,3 C 4,9 C 16,7 km/h (3 Bft)
06.11.2013 15:20 9,2 C 94 % 1010,2 hPa 0,0 l/m 12,1 km/h (2 Bft) S-SO 157 8,3 C 3,7 C 19,2 km/h (3 Bft)
06.11.2013 15:25 9,2 C 94 % 1010,2 hPa 0,0 l/m 13,4 km/h (3 Bft) S-SO 157 8,3 C 2,9 C 16,7 km/h (3 Bft)
06.11.2013 15:30 9,3 C 94 % 1010,2 hPa 0,0 l/m 13,4 km/h (3 Bft) S-SO 157 8,4 C 2,9 C 18,5 km/h (3 Bft)
06.11.2013 15:35 9,3 C 94 % 1010,2 hPa 0,0 l/m 13,0 km/h (3 Bft) S 180 8,4 C 3,2 C 13,7 km/h (3 Bft)
06.11.2013 15:40 9,3 C 94 % 1010,2 hPa 0,7 l/m 13,0 km/h (3 Bft) S-SO 157 8,4 C 3,2 C 21,4 km/h (4 Bft)
06.11.2013 15:45 9,4 C 94 % 1010,2 hPa 0,0 l/m 13,7 km/h (3 Bft) S 180 8,5 C 2,9 C 21,4 km/h (4 Bft)
06.11.2013 15:50 9,4 C 94 % 1010,4 hPa 0,0 l/m 14,6 km/h (3 Bft) S 180 8,5 C 2,2 C 19,3 km/h (3 Bft)
06.11.2013 15:55 9,4 C 94 % 1010,4 hPa 0,0 l/m 14,8 km/h (3 Bft) S 180 8,5 C 2,3 C 21,4 km/h (4 Bft)
06.11.2013 16:00 9,4 C 93 % 1010,4 hPa 0,0 l/m 15,4 km/h (3 Bft) S 180 8,3 C 1,9 C 18,2 km/h (3 Bft)
06.11.2013 16:05 9,4 C 93 % 1010,4 hPa 0,0 l/m 15,3 km/h (3 Bft) W-SW 247 8,3 C 2,0 C 20,9 km/h (4 Bft)
06.11.2013 16:10 9,4 C 93 % 1010,5 hPa 0,0 l/m 16,7 km/h (3 Bft) S 180 8,3 C 1,1 C 24,9 km/h (4 Bft)
06.11.2013 16:13 9,5 C 93 % 1010,5 hPa 0,0 l/m 17,4 km/h (3 Bft) S-SO 157 8,4 C 0,8 C 17,1 km/h (3 Bft)
06.11.2013 16:15 9,5 C 93 % 1010,5 hPa 0,0 l/m 17,4 km/h (3 Bft) S-SO 157 8,4 C 0,8 C 17,1 km/h (3 Bft)
06.11.2013 16:20 9,4 C 93 % 1010,5 hPa 0,0 l/m 16,9 km/h (3 Bft) SO 135 8,3 C 1,0 C 16,4 km/h (3 Bft)
06.11.2013 16:25 9,4 C 93 % 1010,5 hPa 0,0 l/m 15,1 km/h (3 Bft) S 180 8,3 C 2,2 C 18,2 km/h (3 Bft)
06.11.2013 16:30 9,3 C 93 % 1010,8 hPa 0,0 l/m 14,0 km/h (3 Bft) SO 135 8,2 C 2,8 C 21,9 km/h (4 Bft)
06.11.2013 16:35 9,3 C 93 % 1010,8 hPa 0,0 l/m 13,2 km/h (3 Bft) SW 225 8,2 C 3,3 C 15,9 km/h (3 Bft)
06.11.2013 16:40 9,4 C 93 % 1010,8 hPa 0,0 l/m 13,5 km/h (3 Bft) S 180 8,3 C 3,1 C 11,6 km/h (2 Bft)
06.11.2013 16:45 9,3 C 93 % 1010,8 hPa 0,0 l/m 12,4 km/h (3 Bft) S 180 8,2 C 3,9 C 14,6 km/h (3 Bft)
06.11.2013 16:50 9,3 C 93 % 1011,1 hPa 0,0 l/m 12,1 km/h (2 Bft) SW 225 8,2 C 4,0 C 10,8 km/h (2 Bft)
06.11.2013 16:55 9,3 C 93 % 1011,1 hPa 0,0 l/m 11,6 km/h (2 Bft) S-SO 157 8,2 C 4,5 C 10,6 km/h (2 Bft)
06.11.2013 17:00 9,3 C 93 % 1011,1 hPa 0,0 l/m 13,7 km/h (3 Bft) S-SO 157 8,2 C 3,0 C 20,3 km/h (4 Bft)
06.11.2013 17:05 9,3 C 93 % 1011,1 hPa 0,0 l/m 14,0 km/h (3 Bft) S-SW 202 8,2 C 2,8 C 9,5 km/h (2 Bft)
06.11.2013 17:10 9,3 C 93 % 1011,1 hPa 0,0 l/m 14,2 km/h (3 Bft) S 180 8,2 C 2,7 C 20,0 km/h (4 Bft)
06.11.2013 17:15 9,4 C 93 % 1011,1 hPa 0,0 l/m 14,6 km/h (3 Bft) S 180 8,3 C 2,4 C 24,0 km/h (4 Bft)
06.11.2013 17:20 9,4 C 93 % 1011,1 hPa 0,0 l/m 14,2 km/h (3 Bft) S 180 8,3 C 2,7 C 22,7 km/h (4 Bft)
06.11.2013 17:25 9,4 C 93 % 1011,1 hPa 0,0 l/m 14,5 km/h (3 Bft) S 180 8,3 C 2,6 C 25,3 km/h (4 Bft)
06.11.2013 17:30 9,4 C 93 % 1011,4 hPa 0,0 l/m 15,6 km/h (3 Bft) S 180 8,3 C 2,3 C 19,6 km/h (3 Bft)
06.11.2013 17:35 9,4 C 92 % 1011,4 hPa 0,0 l/m 16,6 km/h (3 Bft) O-SO 112 8,2 C 2,0 C 25,7 km/h (4 Bft)
06.11.2013 17:40 9,3 C 92 % 1011,4 hPa 0,0 l/m 15,6 km/h (3 Bft) S 180 8,1 C 2,6 C 14,2 km/h (3 Bft)
06.11.2013 17:45 9,3 C 92 % 1011,4 hPa 0,0 l/m 13,5 km/h (3 Bft) S 180 8,1 C 3,8 C 12,7 km/h (3 Bft)
06.11.2013 17:50 9,2 C 92 % 1011,8 hPa 0,0 l/m 11,3 km/h (2 Bft) S 180 8,0 C 5,3 C 11,7 km/h (2 Bft)
06.11.2013 17:55 9,2 C 92 % 1011,8 hPa 0,0 l/m 10,3 km/h (2 Bft) S 180 8,0 C 5,9 C 14,6 km/h (3 Bft)
06.11.2013 18:00 9,2 C 92 % 1011,8 hPa 0,0 l/m 11,3 km/h (2 Bft) SO 135 8,0 C 5,1 C 9,0 km/h (2 Bft)
06.11.2013 18:05 9,2 C 92 % 1011,8 hPa 0,0 l/m 11,9 km/h (2 Bft) S-SW 202 8,0 C 4,7 C 11,9 km/h (2 Bft)
06.11.2013 18:10 9,1 C 92 % 1011,8 hPa 0,0 l/m 11,7 km/h (2 Bft) S 180 7,9 C 5,1 C 10,8 km/h (2 Bft)
06.11.2013 18:15 9,1 C 91 % 1011,8 hPa 0,0 l/m 10,1 km/h (2 Bft) S-SO 157 7,7 C 6,1 C 15,0 km/h (3 Bft)
06.11.2013 18:20 9,1 C 90 % 1011,8 hPa 0,0 l/m 11,1 km/h (2 Bft) S 180 7,5 C 5,5 C 16,3 km/h (3 Bft)
06.11.2013 18:25 9,0 C 90 % 1011,8 hPa 0,0 l/m 11,7 km/h (2 Bft) SO 135 7,4 C 5,1 C 14,6 km/h (3 Bft)
06.11.2013 18:30 9,0 C 90 % 1011,8 hPa 0,0 l/m 12,6 km/h (3 Bft) S-SO 157 7,4 C 4,7 C 11,9 km/h (2 Bft)
06.11.2013 18:35 9,0 C 89 % 1011,8 hPa 0,0 l/m 12,6 km/h (3 Bft) S 180 7,3 C 4,7 C 20,4 km/h (4 Bft)
06.11.2013 18:40 9,1 C 88 % 1011,8 hPa 0,0 l/m 12,1 km/h (2 Bft) S-SO 157 7,2 C 5,1 C 10,8 km/h (2 Bft)
06.11.2013 18:45 9,2 C 87 % 1011,8 hPa 0,0 l/m 13,7 km/h (3 Bft) S 180 7,2 C 4,3 C 21,1 km/h (4 Bft)
06.11.2013 18:50 9,4 C 85 % 1012,1 hPa 0,0 l/m 15,4 km/h (3 Bft) SO 135 7,0 C 3,5 C 35,2 km/h (5 Bft)
06.11.2013 18:55 9,5 C 84 % 1012,1 hPa 0,0 l/m 15,6 km/h (3 Bft) O-SO 112 6,9 C 3,5 C 12,6 km/h (3 Bft)
06.11.2013 19:00 9,6 C 84 % 1012,1 hPa 0,0 l/m 14,0 km/h (3 Bft) S 180 7,0 C 4,5 C 12,6 km/h (3 Bft)
06.11.2013 19:05 9,6 C 84 % 1012,1 hPa 0,0 l/m 13,0 km/h (3 Bft) S-SW 202 7,0 C 5,1 C 16,3 km/h (3 Bft)
06.11.2013 19:10 9,5 C 84 % 1012,4 hPa 0,0 l/m 12,4 km/h (3 Bft) SO 135 6,9 C 5,5 C 11,9 km/h (2 Bft)
06.11.2013 19:15 9,6 C 84 % 1012,4 hPa 0,0 l/m 12,7 km/h (3 Bft) W 270 7,0 C 5,4 C 12,9 km/h (3 Bft)
06.11.2013 19:20 9,9 C 83 % 1012,4 hPa 0,0 l/m 13,5 km/h (3 Bft) S 180 7,2 C 4,8 C 14,5 km/h (3 Bft)
06.11.2013 19:25 10,0 C 82 % 1012,4 hPa 0,0 l/m 13,8 km/h (3 Bft) SO 135 7,1 C 4,9 C 22,0 km/h (4 Bft)
06.11.2013 19:30 10,1 C 81 % 1012,4 hPa 0,0 l/m 14,8 km/h (3 Bft) S 180 7,0 C 4,6 C 20,3 km/h (4 Bft)
06.11.2013 19:35 10,1 C 80 % 1012,4 hPa 0,0 l/m 14,8 km/h (3 Bft) S 180 6,8 C 4,6 C 10,8 km/h (2 Bft)
06.11.2013 19:40 10,3 C 79 % 1012,4 hPa 0,0 l/m 14,8 km/h (3 Bft) S-SW 202 6,8 C 4,6 C 18,8 km/h (3 Bft)
06.11.2013 19:45 10,4 C 78 % 1012,4 hPa 0,0 l/m 15,1 km/h (3 Bft) S-SO 157 6,7 C 4,6 C 22,4 km/h (4 Bft)
06.11.2013 19:50 10,6 C 76 % 1013,2 hPa 0,0 l/m 16,9 km/h (3 Bft) SO 135 6,5 C 3,9 C 36,4 km/h (5 Bft)
06.11.2013 19:55 10,6 C 76 % 1013,2 hPa 0,0 l/m 16,9 km/h (3 Bft) SW 225 6,5 C 4,0 C 21,6 km/h (4 Bft)
06.11.2013 20:00 10,6 C 76 % 1013,2 hPa 0,0 l/m 15,9 km/h (3 Bft) S-SO 157 6,5 C 4,5 C 14,2 km/h (3 Bft)
06.11.2013 20:05 10,6 C 76 % 1013,2 hPa 0,0 l/m 16,1 km/h (3 Bft) S-SO 157 6,5 C 4,4 C 21,4 km/h (4 Bft)
06.11.2013 20:10 10,7 C 75 % 1013,4 hPa 0,0 l/m 16,9 km/h (3 Bft) S-SO 157 6,5 C 4,0 C 32,0 km/h (5 Bft)
06.11.2013 20:15 10,7 C 75 % 1013,4 hPa 0,0 l/m 17,1 km/h (3 Bft) S 180 6,5 C 3,9 C 21,2 km/h (4 Bft)
06.11.2013 20:20 10,5 C 75 % 1013,4 hPa 0,0 l/m 17,1 km/h (3 Bft) S-SO 157 6,3 C 3,9 C 29,1 km/h (5 Bft)
06.11.2013 20:25 10,5 C 75 % 1013,4 hPa 0,0 l/m 17,1 km/h (3 Bft) SO 135 6,3 C 3,7 C 13,4 km/h (3 Bft)
06.11.2013 20:30 10,5 C 74 % 1013,6 hPa 0,0 l/m 17,5 km/h (3 Bft) SO 135 6,1 C 3,3 C 23,3 km/h (4 Bft)
06.11.2013 20:35 10,5 C 73 % 1013,6 hPa 0,0 l/m 16,6 km/h (3 Bft) W 270 5,9 C 3,7 C 26,2 km/h (4 Bft)
06.11.2013 20:40 10,6 C 73 % 1013,6 hPa 0,0 l/m 16,3 km/h (3 Bft) S 180 6,0 C 4,0 C 16,4 km/h (3 Bft)
06.11.2013 20:45 10,7 C 73 % 1013,6 hPa 0,0 l/m 15,4 km/h (3 Bft) S-SW 202 6,1 C 4,6 C 16,1 km/h (3 Bft)
06.11.2013 20:50 10,7 C 72 % 1013,7 hPa 0,0 l/m 14,5 km/h (3 Bft) SW 225 5,9 C 5,2 C 22,2 km/h (4 Bft)
06.11.2013 20:55 10,7 C 71 % 1013,7 hPa 0,0 l/m 14,0 km/h (3 Bft) S-SW 202 5,7 C 5,3 C 12,7 km/h (3 Bft)
06.11.2013 21:00 10,7 C 71 % 1013,7 hPa 0,0 l/m 13,4 km/h (3 Bft) S 180 5,7 C 6,0 C 16,3 km/h (3 Bft)
06.11.2013 21:05 10,7 C 71 % 1013,7 hPa 0,0 l/m 13,7 km/h (3 Bft) S 180 5,7 C 5,7 C 13,8 km/h (3 Bft)
06.11.2013 21:10 10,7 C 72 % 1013,8 hPa 0,0 l/m 14,5 km/h (3 Bft) S 180 5,9 C 5,2 C 20,9 km/h (4 Bft)
06.11.2013 21:14 10,7 C 72 % 1013,8 hPa 0,0 l/m 15,0 km/h (3 Bft) O 90 5,9 C 5,0 C 14,2 km/h (3 Bft)
06.11.2013 21:15 10,7 C 72 % 1013,8 hPa 0,0 l/m 15,0 km/h (3 Bft) O 90 5,9 C 5,0 C 14,2 km/h (3 Bft)
06.11.2013 21:20 10,5 C 72 % 1013,8 hPa 0,0 l/m 14,3 km/h (3 Bft) SO 135 5,7 C 5,1 C 16,9 km/h (3 Bft)
06.11.2013 21:25 10,5 C 73 % 1013,8 hPa 0,0 l/m 13,0 km/h (3 Bft) S-SO 157 5,9 C 5,8 C 12,2 km/h (2 Bft)
06.11.2013 21:30 10,6 C 73 % 1013,9 hPa 0,0 l/m 13,0 km/h (3 Bft) S-SW 202 6,0 C 5,7 C 10,8 km/h (2 Bft)
06.11.2013 21:35 10,4 C 73 % 1013,9 hPa 0,0 l/m 12,9 km/h (3 Bft) S-SO 157 5,8 C 5,5 C 19,3 km/h (3 Bft)
06.11.2013 21:40 10,4 C 74 % 1013,9 hPa 0,0 l/m 15,1 km/h (3 Bft) S 180 6,0 C 4,4 C 19,6 km/h (3 Bft)
06.11.2013 21:46 10,2 C 75 % 1014,0 hPa 0,0 l/m 14,2 km/h (3 Bft) S 180 6,0 C 4,6 C 21,2 km/h (4 Bft)
06.11.2013 21:50 10,2 C 75 % 1014,0 hPa 0,0 l/m 14,2 km/h (3 Bft) S 180 6,0 C 4,6 C 21,2 km/h (4 Bft)
06.11.2013 21:57 10,2 C 75 % 1014,0 hPa 0,0 l/m 13,0 km/h (3 Bft) S-SO 157 6,0 C 5,3 C 19,3 km/h (3 Bft)
06.11.2013 22:00 10,2 C 75 % 1014,0 hPa 0,0 l/m 13,0 km/h (3 Bft) S-SO 157 6,0 C 5,3 C 19,3 km/h (3 Bft)
06.11.2013 22:05 10,4 C 75 % 1014,0 hPa 0,0 l/m 13,2 km/h (3 Bft) S-SO 157 6,2 C 5,1 C 18,2 km/h (3 Bft)
06.11.2013 22:10 10,5 C 74 % 1013,7 hPa 0,0 l/m 14,2 km/h (3 Bft) S-SO 157 6,1 C 4,6 C 13,7 km/h (3 Bft)
06.11.2013 22:15 10,5 C 74 % 1013,7 hPa 0,0 l/m 14,3 km/h (3 Bft) S-SO 157 6,1 C 4,6 C 15,6 km/h (3 Bft)
06.11.2013 22:20 10,9 C 73 % 1013,7 hPa 0,0 l/m 14,6 km/h (3 Bft) S 180 6,3 C 4,9 C 38,1 km/h (5 Bft)
06.11.2013 22:25 10,9 C 72 % 1013,7 hPa 0,0 l/m 15,4 km/h (3 Bft) SW 225 6,1 C 5,0 C 27,0 km/h (4 Bft)
06.11.2013 22:30 11,1 C 72 % 1013,9 hPa 0,0 l/m 16,9 km/h (3 Bft) S 180 6,2 C 4,3 C 21,7 km/h (4 Bft)
06.11.2013 22:35 11,1 C 72 % 1013,9 hPa 0,0 l/m 16,7 km/h (3 Bft) S-SO 157 6,2 C 4,3 C 14,3 km/h (3 Bft)
06.11.2013 22:40 11,0 C 72 % 1013,9 hPa 0,0 l/m 16,3 km/h (3 Bft) S 180 6,2 C 4,5 C 18,0 km/h (3 Bft)
06.11.2013 22:45 11,1 C 72 % 1013,9 hPa 0,0 l/m 16,1 km/h (3 Bft) S 180 6,2 C 4,7 C 11,6 km/h (2 Bft)
06.11.2013 22:50 11,0 C 73 % 1013,9 hPa 0,0 l/m 15,3 km/h (3 Bft) S 180 6,4 C 5,1 C 14,8 km/h (3 Bft)
06.11.2013 22:55 10,9 C 73 % 1013,9 hPa 0,0 l/m 13,8 km/h (3 Bft) S-SO 157 6,3 C 5,9 C 14,0 km/h (3 Bft)
06.11.2013 23:00 11,0 C 72 % 1013,9 hPa 0,0 l/m 15,0 km/h (3 Bft) S 180 6,2 C 5,3 C 22,0 km/h (4 Bft)
06.11.2013 23:05 11,0 C 72 % 1013,9 hPa 0,0 l/m 15,8 km/h (3 Bft) S-SO 157 6,2 C 4,7 C 26,9 km/h (4 Bft)
06.11.2013 23:10 11,0 C 71 % 1013,8 hPa 0,0 l/m 15,3 km/h (3 Bft) S-SW 202 5,9 C 5,0 C 25,9 km/h (4 Bft)
06.11.2013 23:15 11,0 C 71 % 1013,8 hPa 0,0 l/m 15,1 km/h (3 Bft) S-SW 202 5,9 C 5,1 C 24,9 km/h (4 Bft)
06.11.2013 23:20 11,0 C 71 % 1013,8 hPa 0,0 l/m 15,1 km/h (3 Bft) S 180 5,9 C 5,1 C 18,8 km/h (3 Bft)
06.11.2013 23:25 10,9 C 71 % 1013,8 hPa 0,0 l/m 15,3 km/h (3 Bft) S 180 5,9 C 5,0 C 16,6 km/h (3 Bft)
06.11.2013 23:30 11,0 C 69 % 1013,6 hPa 0,0 l/m 17,1 km/h (3 Bft) W-SW 247 5,5 C 4,1 C 29,0 km/h (5 Bft)
06.11.2013 23:35 11,1 C 68 % 1013,6 hPa 0,0 l/m 18,5 km/h (3 Bft) S 180 5,4 C 3,4 C 29,5 km/h (5 Bft)
06.11.2013 23:40 10,8 C 70 % 1013,6 hPa 0,0 l/m 16,9 km/h (3 Bft) S 180 5,6 C 4,0 C 40,1 km/h (6 Bft)
06.11.2013 23:45 10,7 C 70 % 1013,6 hPa 0,0 l/m 15,3 km/h (3 Bft) S 180 5,5 C 4,6 C 18,0 km/h (3 Bft)
06.11.2013 23:50 10,8 C 69 % 1013,8 hPa 0,0 l/m 15,0 km/h (3 Bft) S 180 5,3 C 4,6 C 16,6 km/h (3 Bft)
06.11.2013 23:55 10,8 C 69 % 1013,8 hPa 0,0 l/m 15,0 km/h (3 Bft) S-SO 157 5,3 C 4,6 C 21,7 km/h (4 Bft)
_ Min-Zeit 02:20 23:35 00:05 - 13:05 - - 05:25 03:35 10:55
Minimum _ 4,8 C 68 % 1002,2 hPa - 7,1 km/h (2 Bft) - - 1,6 C -4,1 C 4,8 km/h (1 Bft)
_ Max-Zeit 23:35 15:55 22:05 15:40 23:35 - - 15:55 13:10 23:40
Maximum _ 11,1 C 94 % 1014,0 hPa 0,7 l/m 18,5 km/h
S (3 Bft)
- - 8,5 C 6,4 C 40,1 km/h
S (6 Bft)
Durchschnitt _ 7,7 C 86 % 1008,9 hPa #6,9 l/m 12,1 km/h (2 Bft) S - 5,4 C 2,2 C 15,1 km/h (3 Bft)